CDT,Max TemperatureF,Mean TemperatureF,Min TemperatureF,Max Dew PointF,MeanDew PointF,Min DewpointF,Max Humidity, Mean Humidity, Min Humidity, Max Sea Level PressureIn, Mean Sea Level PressureIn, Min Sea Level PressureIn, Max VisibilityMiles, Mean VisibilityMiles, Min VisibilityMiles, Max Wind SpeedMPH, Mean Wind SpeedMPH, Max Gust SpeedMPH,PrecipitationIn, CloudCover, Events, WindDirDegrees
2013-10-1,77,62,46,52,38,21,76,43,13,30.02,29.86,29.63,10,10,10,18,12,26,0.00,0,,282
2013-10-2,80,60,41,64,45,28,94,61,19,30.03,29.94,29.81,10,10,4,23,6,33,0.60,2,Rain-Thunderstorm,137
2013-10-3,62,58,55,61,56,54,100,96,94,29.92,29.85,29.82,5,1,0,14,5,18,0.02,8,Fog-Rain-Thunderstorm,351
2013-10-4,60,56,53,57,56,54,100,97,88,29.93,29.86,29.74,10,1,0,20,12,26,0.07,8,Fog-Rain-Thunderstorm,50
2013-10-5,60,50,39,59,40,34,100,73,50,29.82,29.77,29.73,10,9,0,16,9,22,0.00,5,Fog,184
2013-10-6,48,45,42,46,43,39,100,91,76,29.93,29.79,29.72,10,7,1,24,7,31,0.05,6,Rain,306
2013-10-7,69,54,39,46,42,37,93,69,37,30.00,29.95,29.90,10,10,10,9,5,,0.00,0,,231
2013-10-8,77,65,53,45,41,39,72,45,26,29.94,29.87,29.79,10,10,10,25,12,38,0.00,0,,177
2013-10-9,77,66,55,48,47,45,72,54,34,30.01,29.98,29.92,10,10,10,17,12,23,0.00,0,,167
2013-10-10,78,66,53,52,47,46,77,54,32,30.01,29.91,29.80,10,10,10,23,11,31,0.00,0,,156
2013-10-11,71,61,51,59,52,43,88,70,46,29.81,29.69,29.57,10,10,2,30,16,38,0.10,2,Rain-Thunderstorm,162
2013-10-12,62,50,37,43,34,21,82,58,22,30.25,29.99,29.77,10,10,10,25,14,33,0.00,0,,248
2013-10-13,62,45,28,39,31,27,93,61,29,30.43,30.36,30.25,10,10,10,8,2,,0.00,0,,94
2013-10-14,51,46,42,46,40,34,100,78,62,30.35,30.12,29.77,10,10,5,21,8,28,0.92,5,Rain-Thunderstorm,110
2013-10-15,53,48,42,52,46,43,100,94,87,29.92,29.74,29.63,10,6,1,23,17,32,0.02,8,Rain,254
2013-10-16,53,45,37,43,37,28,100,78,38,30.01,29.95,29.91,10,9,2,18,11,26,0.00,4,Rain,297
2013-10-17,59,47,35,43,37,32,93,81,42,29.95,29.87,29.81,10,10,3,21,6,30,0.00,4,Rain,277
2013-10-18,50,40,30,36,31,25,100,70,37,30.03,29.96,29.88,10,10,10,14,10,23,0.00,3,,272
2013-10-19,48,38,28,39,32,25,93,78,46,29.87,29.79,29.74,10,10,7,24,9,36,0.00,3,Rain,268
2013-10-20,53,42,32,45,34,27,93,78,58,29.95,29.74,29.63,10,10,2,26,10,34,0.00,7,Rain,244
2013-10-21,44,36,28,30,27,25,93,74,46,30.00,29.97,29.94,10,10,10,20,9,29,0.00,6,,290
2013-10-22,37,32,28,28,26,25,93,74,60,30.07,30.00,29.94,10,10,10,16,5,20,0.00,7,,332
2013-10-23,37,32,26,30,26,21,100,75,52,30.14,30.07,30.02,10,10,7,21,7,28,0.00,7,Snow,289
2013-10-24,48,37,26,34,28,23,100,77,40,30.34,30.26,30.14,10,10,5,16,10,26,0.00,5,Snow,309
2013-10-25,60,40,21,37,31,19,100,70,42,30.34,30.11,29.89,10,10,10,29,8,37,0.00,1,,209
2013-10-26,46,36,26,37,28,23,93,66,43,30.16,30.08,29.90,10,10,10,25,14,30,0.00,0,,308
2013-10-27,62,44,26,34,30,25,93,65,31,30.09,29.92,29.80,10,10,10,18,8,18,0.00,0,,250
2013-10-28,42,36,30,30,28,25,93,74,57,30.38,30.29,30.10,10,10,10,20,12,28,0.00,3,,38
2013-10-29,48,40,33,41,33,25,87,78,65,30.33,30.17,30.03,10,10,5,13,9,18,0.00,8,,68
2013-10-30,50,44,39,48,43,37,100,96,87,30.03,29.86,29.70,10,2,0,13,4,20,0.00,8,Fog-Rain,30
2013-10-31,42,38,35,43,37,36,100,95,81,29.70,29.54,29.45,10,9,2,16,10,21,0.00,8,,268